sensor_id;sensor_type;location;lat;lon;timestamp;P1;durP1;ratioP1;P2;durP2;ratioP2
41627;SDS011;27321;50.816;6.054;2024-01-25T00:00:59;21.07;;;5.20;;
41627;SDS011;27321;50.816;6.054;2024-01-25T00:03:59;25.48;;;5.93;;
41627;SDS011;27321;50.816;6.054;2024-01-25T00:07:02;32.27;;;6.37;;
41627;SDS011;27321;50.816;6.054;2024-01-25T00:10:03;37.72;;;6.75;;
41627;SDS011;27321;50.816;6.054;2024-01-25T00:13:07;23.00;;;6.03;;
41627;SDS011;27321;50.816;6.054;2024-01-25T00:16:08;24.83;;;5.63;;
41627;SDS011;27321;50.816;6.054;2024-01-25T00:19:09;27.50;;;6.30;;
41627;SDS011;27321;50.816;6.054;2024-01-25T00:22:10;25.13;;;5.43;;
41627;SDS011;27321;50.816;6.054;2024-01-25T00:25:11;27.63;;;7.20;;
41627;SDS011;27321;50.816;6.054;2024-01-25T00:28:12;17.30;;;4.93;;
41627;SDS011;27321;50.816;6.054;2024-01-25T00:31:13;19.52;;;5.28;;
41627;SDS011;27321;50.816;6.054;2024-01-25T00:34:14;24.67;;;5.73;;
41627;SDS011;27321;50.816;6.054;2024-01-25T00:37:16;18.73;;;4.68;;
41627;SDS011;27321;50.816;6.054;2024-01-25T00:40:18;17.43;;;5.07;;
41627;SDS011;27321;50.816;6.054;2024-01-25T00:43:19;21.17;;;5.78;;
41627;SDS011;27321;50.816;6.054;2024-01-25T00:46:21;30.55;;;6.15;;
41627;SDS011;27321;50.816;6.054;2024-01-25T00:49:22;30.52;;;6.28;;
41627;SDS011;27321;50.816;6.054;2024-01-25T00:52:24;19.50;;;5.40;;
41627;SDS011;27321;50.816;6.054;2024-01-25T00:55:25;19.45;;;5.68;;
41627;SDS011;27321;50.816;6.054;2024-01-25T00:58:26;24.02;;;6.03;;
41627;SDS011;27321;50.816;6.054;2024-01-25T01:01:27;24.10;;;5.18;;
41627;SDS011;27321;50.816;6.054;2024-01-25T01:04:29;16.85;;;4.90;;
41627;SDS011;27321;50.816;6.054;2024-01-25T01:07:30;18.80;;;5.00;;
41627;SDS011;27321;50.816;6.054;2024-01-25T01:10:32;17.73;;;5.35;;
41627;SDS011;27321;50.816;6.054;2024-01-25T01:13:32;20.67;;;5.50;;
41627;SDS011;27321;50.816;6.054;2024-01-25T01:16:33;30.07;;;6.63;;
41627;SDS011;27321;50.816;6.054;2024-01-25T01:19:36;19.77;;;5.17;;
41627;SDS011;27321;50.816;6.054;2024-01-25T01:22:37;15.53;;;5.03;;
41627;SDS011;27321;50.816;6.054;2024-01-25T01:25:38;22.37;;;5.10;;
41627;SDS011;27321;50.816;6.054;2024-01-25T01:28:38;18.47;;;4.27;;
41627;SDS011;27321;50.816;6.054;2024-01-25T01:31:40;27.55;;;5.45;;
41627;SDS011;27321;50.816;6.054;2024-01-25T01:34:41;23.77;;;5.88;;
41627;SDS011;27321;50.816;6.054;2024-01-25T01:37:42;28.20;;;6.70;;
41627;SDS011;27321;50.816;6.054;2024-01-25T01:40:44;23.38;;;5.22;;
41627;SDS011;27321;50.816;6.054;2024-01-25T01:43:46;29.80;;;7.10;;
41627;SDS011;27321;50.816;6.054;2024-01-25T01:46:47;26.60;;;6.23;;
41627;SDS011;27321;50.816;6.054;2024-01-25T01:49:49;24.15;;;6.07;;
41627;SDS011;27321;50.816;6.054;2024-01-25T01:52:50;27.00;;;5.75;;
41627;SDS011;27321;50.816;6.054;2024-01-25T01:55:52;26.57;;;6.03;;
41627;SDS011;27321;50.816;6.054;2024-01-25T01:58:53;26.25;;;6.22;;
41627;SDS011;27321;50.816;6.054;2024-01-25T02:01:56;28.90;;;6.47;;
41627;SDS011;27321;50.816;6.054;2024-01-25T02:04:57;25.73;;;6.07;;
41627;SDS011;27321;50.816;6.054;2024-01-25T02:07:58;31.63;;;6.85;;
41627;SDS011;27321;50.816;6.054;2024-01-25T02:10:59;25.85;;;6.25;;
41627;SDS011;27321;50.816;6.054;2024-01-25T02:14:02;23.30;;;5.93;;
41627;SDS011;27321;50.816;6.054;2024-01-25T02:17:06;25.70;;;5.13;;
41627;SDS011;27321;50.816;6.054;2024-01-25T02:20:07;22.50;;;5.33;;
41627;SDS011;27321;50.816;6.054;2024-01-25T02:23:10;26.37;;;5.40;;
41627;SDS011;27321;50.816;6.054;2024-01-25T02:26:10;20.93;;;5.30;;
41627;SDS011;27321;50.816;6.054;2024-01-25T02:29:11;17.70;;;5.10;;
41627;SDS011;27321;50.816;6.054;2024-01-25T02:32:12;17.20;;;4.73;;
41627;SDS011;27321;50.816;6.054;2024-01-25T02:35:13;23.80;;;5.53;;
41627;SDS011;27321;50.816;6.054;2024-01-25T02:38:14;24.63;;;4.97;;
41627;SDS011;27321;50.816;6.054;2024-01-25T02:41:15;23.40;;;5.07;;
41627;SDS011;27321;50.816;6.054;2024-01-25T02:44:16;22.43;;;5.13;;
41627;SDS011;27321;50.816;6.054;2024-01-25T02:47:17;19.20;;;5.07;;
41627;SDS011;27321;50.816;6.054;2024-01-25T02:50:19;22.17;;;4.70;;
41627;SDS011;27321;50.816;6.054;2024-01-25T02:53:20;23.17;;;4.75;;
41627;SDS011;27321;50.816;6.054;2024-01-25T02:56:21;21.23;;;4.77;;
41627;SDS011;27321;50.816;6.054;2024-01-25T02:59:22;19.25;;;5.00;;
41627;SDS011;27321;50.816;6.054;2024-01-25T03:02:22;26.70;;;5.57;;
41627;SDS011;27321;50.816;6.054;2024-01-25T03:05:23;23.17;;;4.67;;
41627;SDS011;27321;50.816;6.054;2024-01-25T03:08:24;17.80;;;4.07;;
41627;SDS011;27321;50.816;6.054;2024-01-25T03:11:25;20.27;;;4.77;;
41627;SDS011;27321;50.816;6.054;2024-01-25T03:14:26;19.83;;;4.77;;
41627;SDS011;27321;50.816;6.054;2024-01-25T03:17:27;19.58;;;5.13;;
41627;SDS011;27321;50.816;6.054;2024-01-25T03:20:28;24.83;;;4.57;;
41627;SDS011;27321;50.816;6.054;2024-01-25T03:23:29;13.40;;;4.27;;
41627;SDS011;27321;50.816;6.054;2024-01-25T03:26:30;22.83;;;4.83;;
41627;SDS011;27321;50.816;6.054;2024-01-25T03:29:31;14.17;;;3.10;;
41627;SDS011;27321;50.816;6.054;2024-01-25T03:32:35;12.93;;;3.07;;
41627;SDS011;27321;50.816;6.054;2024-01-25T03:35:36;11.47;;;3.13;;
41627;SDS011;27321;50.816;6.054;2024-01-25T03:38:37;8.53;;;2.93;;
41627;SDS011;27321;50.816;6.054;2024-01-25T03:41:38;17.90;;;4.47;;
41627;SDS011;27321;50.816;6.054;2024-01-25T03:44:39;14.97;;;4.23;;
41627;SDS011;27321;50.816;6.054;2024-01-25T03:47:42;18.13;;;4.10;;
41627;SDS011;27321;50.816;6.054;2024-01-25T03:50:43;17.03;;;4.33;;
41627;SDS011;27321;50.816;6.054;2024-01-25T03:53:44;12.57;;;3.83;;
41627;SDS011;27321;50.816;6.054;2024-01-25T03:56:45;11.67;;;3.63;;
41627;SDS011;27321;50.816;6.054;2024-01-25T03:59:46;10.38;;;3.70;;
41627;SDS011;27321;50.816;6.054;2024-01-25T04:02:47;19.53;;;4.20;;
41627;SDS011;27321;50.816;6.054;2024-01-25T04:05:48;23.20;;;5.13;;
41627;SDS011;27321;50.816;6.054;2024-01-25T04:08:48;16.43;;;5.00;;
41627;SDS011;27321;50.816;6.054;2024-01-25T04:11:49;20.13;;;4.73;;
41627;SDS011;27321;50.816;6.054;2024-01-25T04:14:50;12.17;;;4.07;;
41627;SDS011;27321;50.816;6.054;2024-01-25T04:17:51;14.40;;;3.97;;
41627;SDS011;27321;50.816;6.054;2024-01-25T04:20:53;19.83;;;4.97;;
41627;SDS011;27321;50.816;6.054;2024-01-25T04:23:54;20.50;;;4.47;;
41627;SDS011;27321;50.816;6.054;2024-01-25T04:26:55;15.48;;;3.67;;
41627;SDS011;27321;50.816;6.054;2024-01-25T04:29:56;12.85;;;3.47;;
41627;SDS011;27321;50.816;6.054;2024-01-25T04:32:57;12.07;;;3.10;;
41627;SDS011;27321;50.816;6.054;2024-01-25T04:35:59;14.27;;;3.47;;
41627;SDS011;27321;50.816;6.054;2024-01-25T04:39:02;11.43;;;3.77;;
41627;SDS011;27321;50.816;6.054;2024-01-25T04:42:03;10.43;;;2.97;;
41627;SDS011;27321;50.816;6.054;2024-01-25T04:45:05;11.07;;;3.65;;
41627;SDS011;27321;50.816;6.054;2024-01-25T04:48:07;10.67;;;3.20;;
41627;SDS011;27321;50.816;6.054;2024-01-25T04:51:08;15.95;;;4.40;;
41627;SDS011;27321;50.816;6.054;2024-01-25T04:54:08;14.50;;;3.90;;
41627;SDS011;27321;50.816;6.054;2024-01-25T04:57:12;13.97;;;4.03;;
41627;SDS011;27321;50.816;6.054;2024-01-25T05:00:13;15.60;;;3.60;;
41627;SDS011;27321;50.816;6.054;2024-01-25T05:03:15;13.48;;;3.72;;
41627;SDS011;27321;50.816;6.054;2024-01-25T05:06:16;12.60;;;3.43;;
41627;SDS011;27321;50.816;6.054;2024-01-25T05:09:19;14.60;;;3.87;;
41627;SDS011;27321;50.816;6.054;2024-01-25T05:12:20;15.87;;;4.03;;
41627;SDS011;27321;50.816;6.054;2024-01-25T05:15:21;14.07;;;4.40;;
41627;SDS011;27321;50.816;6.054;2024-01-25T05:18:22;16.27;;;4.30;;
41627;SDS011;27321;50.816;6.054;2024-01-25T05:21:23;13.30;;;3.85;;
41627;SDS011;27321;50.816;6.054;2024-01-25T05:24:25;15.10;;;4.43;;
41627;SDS011;27321;50.816;6.054;2024-01-25T05:27:26;12.30;;;3.70;;
41627;SDS011;27321;50.816;6.054;2024-01-25T05:30:27;12.87;;;3.37;;
41627;SDS011;27321;50.816;6.054;2024-01-25T05:33:28;15.23;;;3.88;;
41627;SDS011;27321;50.816;6.054;2024-01-25T05:36:29;13.63;;;3.67;;
41627;SDS011;27321;50.816;6.054;2024-01-25T05:39:33;12.97;;;3.27;;
41627;SDS011;27321;50.816;6.054;2024-01-25T05:42:34;12.10;;;3.37;;
41627;SDS011;27321;50.816;6.054;2024-01-25T05:45:35;16.90;;;4.38;;
41627;SDS011;27321;50.816;6.054;2024-01-25T05:48:36;17.93;;;4.67;;
41627;SDS011;27321;50.816;6.054;2024-01-25T05:51:37;17.20;;;4.03;;
41627;SDS011;27321;50.816;6.054;2024-01-25T05:54:38;10.00;;;3.60;;
41627;SDS011;27321;50.816;6.054;2024-01-25T05:57:39;13.83;;;3.90;;
41627;SDS011;27321;50.816;6.054;2024-01-25T06:00:42;13.00;;;3.87;;
41627;SDS011;27321;50.816;6.054;2024-01-25T06:03:43;10.23;;;3.55;;
41627;SDS011;27321;50.816;6.054;2024-01-25T06:06:44;15.97;;;3.57;;
41627;SDS011;27321;50.816;6.054;2024-01-25T06:09:45;13.63;;;3.63;;
41627;SDS011;27321;50.816;6.054;2024-01-25T06:12:46;14.57;;;4.30;;
41627;SDS011;27321;50.816;6.054;2024-01-25T06:15:47;16.73;;;4.17;;
41627;SDS011;27321;50.816;6.054;2024-01-25T06:18:48;20.48;;;4.63;;
41627;SDS011;27321;50.816;6.054;2024-01-25T06:21:49;12.63;;;4.00;;
41627;SDS011;27321;50.816;6.054;2024-01-25T06:24:50;11.68;;;3.85;;
41627;SDS011;27321;50.816;6.054;2024-01-25T06:27:52;13.75;;;3.92;;
41627;SDS011;27321;50.816;6.054;2024-01-25T06:30:53;14.50;;;4.13;;
41627;SDS011;27321;50.816;6.054;2024-01-25T06:33:53;13.87;;;4.23;;
41627;SDS011;27321;50.816;6.054;2024-01-25T06:36:54;11.57;;;3.67;;
41627;SDS011;27321;50.816;6.054;2024-01-25T06:39:55;7.73;;;3.43;;
41627;SDS011;27321;50.816;6.054;2024-01-25T06:42:56;11.37;;;3.47;;
41627;SDS011;27321;50.816;6.054;2024-01-25T06:45:57;14.63;;;4.47;;
41627;SDS011;27321;50.816;6.054;2024-01-25T06:48:58;11.65;;;3.85;;
41627;SDS011;27321;50.816;6.054;2024-01-25T06:51:59;12.30;;;4.18;;
41627;SDS011;27321;50.816;6.054;2024-01-25T06:55:02;18.17;;;4.03;;
41627;SDS011;27321;50.816;6.054;2024-01-25T06:58:03;14.90;;;3.72;;
41627;SDS011;27321;50.816;6.054;2024-01-25T07:01:04;10.13;;;3.90;;
41627;SDS011;27321;50.816;6.054;2024-01-25T07:04:05;13.63;;;4.03;;
41627;SDS011;27321;50.816;6.054;2024-01-25T07:07:06;9.47;;;3.63;;
41627;SDS011;27321;50.816;6.054;2024-01-25T07:10:07;8.57;;;3.95;;
41627;SDS011;27321;50.816;6.054;2024-01-25T07:13:09;10.15;;;3.72;;
41627;SDS011;27321;50.816;6.054;2024-01-25T07:16:09;7.67;;;3.17;;
41627;SDS011;27321;50.816;6.054;2024-01-25T07:19:10;9.25;;;3.85;;
41627;SDS011;27321;50.816;6.054;2024-01-25T07:22:13;6.60;;;3.23;;
41627;SDS011;27321;50.816;6.054;2024-01-25T07:25:15;9.50;;;3.90;;
41627;SDS011;27321;50.816;6.054;2024-01-25T07:28:18;12.23;;;4.00;;
41627;SDS011;27321;50.816;6.054;2024-01-25T07:31:19;9.10;;;4.23;;
41627;SDS011;27321;50.816;6.054;2024-01-25T07:34:20;10.53;;;4.50;;
41627;SDS011;27321;50.816;6.054;2024-01-25T07:37:21;9.67;;;4.60;;
41627;SDS011;27321;50.816;6.054;2024-01-25T07:40:22;10.23;;;4.70;;
41627;SDS011;27321;50.816;6.054;2024-01-25T07:43:23;11.70;;;4.53;;
41627;SDS011;27321;50.816;6.054;2024-01-25T07:46:24;9.77;;;4.30;;
41627;SDS011;27321;50.816;6.054;2024-01-25T07:49:25;11.02;;;4.65;;
41627;SDS011;27321;50.816;6.054;2024-01-25T07:52:26;8.68;;;4.40;;
41627;SDS011;27321;50.816;6.054;2024-01-25T07:55:27;14.30;;;5.23;;
41627;SDS011;27321;50.816;6.054;2024-01-25T07:58:29;19.47;;;6.97;;
41627;SDS011;27321;50.816;6.054;2024-01-25T08:01:30;19.30;;;7.63;;
41627;SDS011;27321;50.816;6.054;2024-01-25T08:04:32;20.05;;;7.53;;
41627;SDS011;27321;50.816;6.054;2024-01-25T08:07:35;23.10;;;9.07;;
41627;SDS011;27321;50.816;6.054;2024-01-25T08:10:37;24.87;;;9.17;;
41627;SDS011;27321;50.816;6.054;2024-01-25T08:13:38;23.97;;;9.03;;
41627;SDS011;27321;50.816;6.054;2024-01-25T08:16:39;22.20;;;8.23;;
41627;SDS011;27321;50.816;6.054;2024-01-25T08:19:40;24.17;;;8.70;;
41627;SDS011;27321;50.816;6.054;2024-01-25T08:22:41;18.90;;;8.33;;
41627;SDS011;27321;50.816;6.054;2024-01-25T08:25:42;20.30;;;8.73;;
41627;SDS011;27321;50.816;6.054;2024-01-25T08:28:43;23.70;;;8.57;;
41627;SDS011;27321;50.816;6.054;2024-01-25T08:31:44;22.00;;;8.52;;
41627;SDS011;27321;50.816;6.054;2024-01-25T08:34:46;18.08;;;7.82;;
41627;SDS011;27321;50.816;6.054;2024-01-25T08:37:47;20.87;;;7.27;;
41627;SDS011;27321;50.816;6.054;2024-01-25T08:40:49;16.17;;;7.10;;
41627;SDS011;27321;50.816;6.054;2024-01-25T08:43:50;16.17;;;6.93;;
41627;SDS011;27321;50.816;6.054;2024-01-25T08:46:51;16.37;;;7.20;;
41627;SDS011;27321;50.816;6.054;2024-01-25T08:49:52;14.18;;;6.85;;
41627;SDS011;27321;50.816;6.054;2024-01-25T08:52:53;17.70;;;7.50;;
41627;SDS011;27321;50.816;6.054;2024-01-25T08:55:54;18.80;;;8.07;;
41627;SDS011;27321;50.816;6.054;2024-01-25T08:58:55;14.40;;;7.05;;
41627;SDS011;27321;50.816;6.054;2024-01-25T09:01:59;19.77;;;6.97;;
41627;SDS011;27321;50.816;6.054;2024-01-25T09:05:02;14.53;;;6.27;;
41627;SDS011;27321;50.816;6.054;2024-01-25T09:08:07;17.90;;;6.67;;
41627;SDS011;27321;50.816;6.054;2024-01-25T09:11:09;13.05;;;6.55;;
41627;SDS011;27321;50.816;6.054;2024-01-25T09:14:10;13.47;;;6.50;;
41627;SDS011;27321;50.816;6.054;2024-01-25T09:17:11;16.40;;;6.03;;
41627;SDS011;27321;50.816;6.054;2024-01-25T09:20:14;12.63;;;6.10;;
41627;SDS011;27321;50.816;6.054;2024-01-25T09:23:15;14.63;;;7.55;;
41627;SDS011;27321;50.816;6.054;2024-01-25T09:26:17;14.68;;;6.75;;
41627;SDS011;27321;50.816;6.054;2024-01-25T09:29:17;16.13;;;7.13;;
41627;SDS011;27321;50.816;6.054;2024-01-25T09:32:18;18.93;;;6.67;;
41627;SDS011;27321;50.816;6.054;2024-01-25T09:35:20;17.53;;;7.13;;
41627;SDS011;27321;50.816;6.054;2024-01-25T09:38:21;17.40;;;7.60;;
41627;SDS011;27321;50.816;6.054;2024-01-25T09:41:23;17.75;;;5.88;;
41627;SDS011;27321;50.816;6.054;2024-01-25T09:44:24;21.07;;;7.07;;
41627;SDS011;27321;50.816;6.054;2024-01-25T09:47:25;13.20;;;6.53;;
41627;SDS011;27321;50.816;6.054;2024-01-25T09:50:26;16.80;;;6.50;;
41627;SDS011;27321;50.816;6.054;2024-01-25T09:53:27;15.63;;;6.20;;
41627;SDS011;27321;50.816;6.054;2024-01-25T09:56:32;19.27;;;6.93;;
41627;SDS011;27321;50.816;6.054;2024-01-25T09:59:35;20.60;;;6.93;;
41627;SDS011;27321;50.816;6.054;2024-01-25T10:02:36;18.80;;;6.13;;
41627;SDS011;27321;50.816;6.054;2024-01-25T10:05:37;15.07;;;5.53;;
41627;SDS011;27321;50.816;6.054;2024-01-25T10:08:38;12.90;;;5.13;;
41627;SDS011;27321;50.816;6.054;2024-01-25T10:11:39;16.10;;;5.30;;
41627;SDS011;27321;50.816;6.054;2024-01-25T10:14:40;21.03;;;5.97;;
41627;SDS011;27321;50.816;6.054;2024-01-25T10:17:41;21.00;;;5.78;;
41627;SDS011;27321;50.816;6.054;2024-01-25T10:20:45;19.60;;;5.93;;
41627;SDS011;27321;50.816;6.054;2024-01-25T10:23:46;19.30;;;5.93;;
41627;SDS011;27321;50.816;6.054;2024-01-25T10:26:48;22.55;;;5.90;;
41627;SDS011;27321;50.816;6.054;2024-01-25T10:29:49;13.07;;;4.40;;
41627;SDS011;27321;50.816;6.054;2024-01-25T10:32:51;10.43;;;4.03;;
41627;SDS011;27321;50.816;6.054;2024-01-25T10:39:03;15.43;;;4.63;;
41627;SDS011;27321;50.816;6.054;2024-01-25T10:42:05;14.33;;;4.53;;
41627;SDS011;27321;50.816;6.054;2024-01-25T10:45:06;10.45;;;3.92;;
41627;SDS011;27321;50.816;6.054;2024-01-25T10:48:08;10.13;;;4.37;;
41627;SDS011;27321;50.816;6.054;2024-01-25T10:51:09;14.38;;;4.57;;
41627;SDS011;27321;50.816;6.054;2024-01-25T10:54:13;9.30;;;4.30;;
41627;SDS011;27321;50.816;6.054;2024-01-25T10:57:15;17.00;;;4.90;;
41627;SDS011;27321;50.816;6.054;2024-01-25T11:00:16;15.30;;;4.87;;
41627;SDS011;27321;50.816;6.054;2024-01-25T11:03:17;9.40;;;3.80;;
41627;SDS011;27321;50.816;6.054;2024-01-25T11:06:20;15.20;;;4.67;;
41627;SDS011;27321;50.816;6.054;2024-01-25T11:09:23;11.17;;;4.07;;
41627;SDS011;27321;50.816;6.054;2024-01-25T11:12:25;11.47;;;3.77;;
41627;SDS011;27321;50.816;6.054;2024-01-25T11:15:30;7.93;;;3.80;;
41627;SDS011;27321;50.816;6.054;2024-01-25T11:18:32;15.20;;;4.57;;
41627;SDS011;27321;50.816;6.054;2024-01-25T11:21:40;15.30;;;4.43;;
41627;SDS011;27321;50.816;6.054;2024-01-25T11:24:46;12.00;;;4.07;;
41627;SDS011;27321;50.816;6.054;2024-01-25T11:27:48;11.90;;;3.97;;
41627;SDS011;27321;50.816;6.054;2024-01-25T11:33:51;14.07;;;4.60;;
41627;SDS011;27321;50.816;6.054;2024-01-25T11:36:57;13.80;;;4.00;;
41627;SDS011;27321;50.816;6.054;2024-01-25T11:39:58;11.40;;;4.37;;
41627;SDS011;27321;50.816;6.054;2024-01-25T11:42:59;11.25;;;3.85;;
41627;SDS011;27321;50.816;6.054;2024-01-25T11:46:03;13.40;;;4.10;;
41627;SDS011;27321;50.816;6.054;2024-01-25T11:49:04;9.95;;;3.67;;
41627;SDS011;27321;50.816;6.054;2024-01-25T11:52:07;10.17;;;3.30;;
41627;SDS011;27321;50.816;6.054;2024-01-25T11:55:09;13.15;;;4.50;;
41627;SDS011;27321;50.816;6.054;2024-01-25T11:58:11;13.52;;;3.58;;
41627;SDS011;27321;50.816;6.054;2024-01-25T12:01:12;12.73;;;4.45;;
41627;SDS011;27321;50.816;6.054;2024-01-25T12:04:14;12.40;;;3.57;;
41627;SDS011;27321;50.816;6.054;2024-01-25T12:07:15;7.75;;;3.20;;
41627;SDS011;27321;50.816;6.054;2024-01-25T12:10:16;13.55;;;4.18;;
41627;SDS011;27321;50.816;6.054;2024-01-25T12:13:17;8.45;;;3.58;;
41627;SDS011;27321;50.816;6.054;2024-01-25T12:16:18;9.80;;;2.90;;
41627;SDS011;27321;50.816;6.054;2024-01-25T12:19:20;10.73;;;3.58;;
41627;SDS011;27321;50.816;6.054;2024-01-25T12:22:21;7.00;;;2.73;;
41627;SDS011;27321;50.816;6.054;2024-01-25T12:25:22;8.60;;;2.90;;
41627;SDS011;27321;50.816;6.054;2024-01-25T12:28:25;9.53;;;2.80;;
41627;SDS011;27321;50.816;6.054;2024-01-25T12:31:28;8.53;;;2.93;;
41627;SDS011;27321;50.816;6.054;2024-01-25T12:34:29;11.87;;;3.70;;
41627;SDS011;27321;50.816;6.054;2024-01-25T12:37:30;13.13;;;3.43;;
41627;SDS011;27321;50.816;6.054;2024-01-25T12:40:31;15.60;;;2.90;;
41627;SDS011;27321;50.816;6.054;2024-01-25T12:43:32;7.40;;;2.40;;
41627;SDS011;27321;50.816;6.054;2024-01-25T12:46:33;7.43;;;2.47;;
41627;SDS011;27321;50.816;6.054;2024-01-25T12:49:34;8.18;;;2.85;;
41627;SDS011;27321;50.816;6.054;2024-01-25T12:52:34;8.43;;;2.70;;
41627;SDS011;27321;50.816;6.054;2024-01-25T12:55:36;8.02;;;3.08;;
41627;SDS011;27321;50.816;6.054;2024-01-25T12:58:38;6.53;;;2.43;;
41627;SDS011;27321;50.816;6.054;2024-01-25T13:01:39;7.13;;;2.58;;
41627;SDS011;27321;50.816;6.054;2024-01-25T13:04:40;12.52;;;3.17;;
41627;SDS011;27321;50.816;6.054;2024-01-25T13:07:41;10.55;;;3.25;;
41627;SDS011;27321;50.816;6.054;2024-01-25T13:10:43;6.47;;;2.60;;
41627;SDS011;27321;50.816;6.054;2024-01-25T13:13:44;7.93;;;2.67;;
41627;SDS011;27321;50.816;6.054;2024-01-25T13:16:45;7.03;;;2.70;;
41627;SDS011;27321;50.816;6.054;2024-01-25T13:19:46;12.35;;;3.47;;
41627;SDS011;27321;50.816;6.054;2024-01-25T13:22:48;4.82;;;1.92;;
41627;SDS011;27321;50.816;6.054;2024-01-25T13:25:48;7.50;;;2.77;;
41627;SDS011;27321;50.816;6.054;2024-01-25T13:28:49;6.60;;;2.53;;
41627;SDS011;27321;50.816;6.054;2024-01-25T13:31:50;7.70;;;2.67;;
41627;SDS011;27321;50.816;6.054;2024-01-25T13:34:51;12.40;;;3.10;;
41627;SDS011;27321;50.816;6.054;2024-01-25T13:37:52;8.40;;;2.85;;
41627;SDS011;27321;50.816;6.054;2024-01-25T13:40:53;8.03;;;2.50;;
41627;SDS011;27321;50.816;6.054;2024-01-25T13:43:54;6.50;;;2.63;;
41627;SDS011;27321;50.816;6.054;2024-01-25T13:46:55;5.80;;;1.83;;
41627;SDS011;27321;50.816;6.054;2024-01-25T13:49:56;6.13;;;1.93;;
41627;SDS011;27321;50.816;6.054;2024-01-25T13:52:57;7.33;;;2.50;;
41627;SDS011;27321;50.816;6.054;2024-01-25T13:55:57;6.40;;;2.43;;
41627;SDS011;27321;50.816;6.054;2024-01-25T13:58:58;7.13;;;2.17;;
41627;SDS011;27321;50.816;6.054;2024-01-25T14:01:59;9.55;;;2.42;;
41627;SDS011;27321;50.816;6.054;2024-01-25T14:05:02;10.63;;;2.60;;
41627;SDS011;27321;50.816;6.054;2024-01-25T14:08:04;9.52;;;2.85;;
41627;SDS011;27321;50.816;6.054;2024-01-25T14:11:06;13.75;;;2.90;;
41627;SDS011;27321;50.816;6.054;2024-01-25T14:14:07;7.25;;;2.00;;
41627;SDS011;27321;50.816;6.054;2024-01-25T14:17:08;6.03;;;2.00;;
41627;SDS011;27321;50.816;6.054;2024-01-25T14:20:09;5.18;;;1.65;;
41627;SDS011;27321;50.816;6.054;2024-01-25T14:23:10;4.32;;;1.77;;
41627;SDS011;27321;50.816;6.054;2024-01-25T14:26:11;3.37;;;1.40;;
41627;SDS011;27321;50.816;6.054;2024-01-25T14:29:14;5.45;;;1.50;;
41627;SDS011;27321;50.816;6.054;2024-01-25T14:32:15;3.20;;;1.47;;
41627;SDS011;27321;50.816;6.054;2024-01-25T14:35:17;3.13;;;1.17;;
41627;SDS011;27321;50.816;6.054;2024-01-25T14:38:19;4.13;;;1.38;;
41627;SDS011;27321;50.816;6.054;2024-01-25T14:41:20;4.20;;;1.10;;
41627;SDS011;27321;50.816;6.054;2024-01-25T14:44:20;2.60;;;1.07;;
41627;SDS011;27321;50.816;6.054;2024-01-25T14:47:21;3.00;;;1.33;;
41627;SDS011;27321;50.816;6.054;2024-01-25T14:50:23;3.97;;;1.40;;
41627;SDS011;27321;50.816;6.054;2024-01-25T14:53:24;2.80;;;1.65;;
41627;SDS011;27321;50.816;6.054;2024-01-25T14:56:26;2.67;;;1.17;;
41627;SDS011;27321;50.816;6.054;2024-01-25T14:59:27;3.58;;;1.10;;
41627;SDS011;27321;50.816;6.054;2024-01-25T15:02:29;2.10;;;1.17;;
41627;SDS011;27321;50.816;6.054;2024-01-25T15:05:30;4.93;;;1.30;;
41627;SDS011;27321;50.816;6.054;2024-01-25T15:08:32;1.95;;;0.98;;
41627;SDS011;27321;50.816;6.054;2024-01-25T15:11:33;3.40;;;1.48;;
41627;SDS011;27321;50.816;6.054;2024-01-25T15:14:34;3.47;;;1.10;;
41627;SDS011;27321;50.816;6.054;2024-01-25T15:17:36;4.17;;;1.23;;
41627;SDS011;27321;50.816;6.054;2024-01-25T15:20:38;2.15;;;1.20;;
41627;SDS011;27321;50.816;6.054;2024-01-25T15:23:39;2.88;;;1.27;;
41627;SDS011;27321;50.816;6.054;2024-01-25T15:29:43;2.65;;;0.98;;
41627;SDS011;27321;50.816;6.054;2024-01-25T15:32:44;2.08;;;1.08;;
41627;SDS011;27321;50.816;6.054;2024-01-25T15:35:48;4.47;;;1.30;;
41627;SDS011;27321;50.816;6.054;2024-01-25T15:38:50;5.03;;;1.43;;
41627;SDS011;27321;50.816;6.054;2024-01-25T15:41:51;3.55;;;1.38;;
41627;SDS011;27321;50.816;6.054;2024-01-25T15:44:54;3.20;;;1.17;;
41627;SDS011;27321;50.816;6.054;2024-01-25T15:47:56;4.57;;;1.20;;
41627;SDS011;27321;50.816;6.054;2024-01-25T15:50:58;4.03;;;1.40;;
41627;SDS011;27321;50.816;6.054;2024-01-25T15:53:59;3.13;;;1.30;;
41627;SDS011;27321;50.816;6.054;2024-01-25T15:57:05;3.60;;;1.20;;
41627;SDS011;27321;50.816;6.054;2024-01-25T16:00:08;1.37;;;0.87;;
41627;SDS011;27321;50.816;6.054;2024-01-25T16:03:11;2.53;;;1.10;;
41627;SDS011;27321;50.816;6.054;2024-01-25T16:06:12;2.30;;;1.17;;
41627;SDS011;27321;50.816;6.054;2024-01-25T16:09:13;0.95;;;0.68;;
41627;SDS011;27321;50.816;6.054;2024-01-25T16:12:14;2.47;;;1.02;;
41627;SDS011;27321;50.816;6.054;2024-01-25T16:15:15;1.60;;;0.77;;
41627;SDS011;27321;50.816;6.054;2024-01-25T16:18:17;2.53;;;0.90;;
41627;SDS011;27321;50.816;6.054;2024-01-25T16:21:18;1.42;;;0.98;;
41627;SDS011;27321;50.816;6.054;2024-01-25T16:24:20;1.33;;;0.70;;
41627;SDS011;27321;50.816;6.054;2024-01-25T16:27:21;1.27;;;0.85;;
41627;SDS011;27321;50.816;6.054;2024-01-25T16:30:22;1.40;;;0.93;;
41627;SDS011;27321;50.816;6.054;2024-01-25T16:33:24;0.98;;;0.68;;
41627;SDS011;27321;50.816;6.054;2024-01-25T16:36:25;1.93;;;0.70;;
41627;SDS011;27321;50.816;6.054;2024-01-25T16:39:27;2.08;;;0.70;;
41627;SDS011;27321;50.816;6.054;2024-01-25T16:42:28;0.80;;;0.80;;
41627;SDS011;27321;50.816;6.054;2024-01-25T16:45:29;1.60;;;0.80;;
41627;SDS011;27321;50.816;6.054;2024-01-25T16:48:30;0.77;;;0.63;;
41627;SDS011;27321;50.816;6.054;2024-01-25T16:51:31;1.53;;;0.93;;
41627;SDS011;27321;50.816;6.054;2024-01-25T16:57:34;1.05;;;0.95;;
41627;SDS011;27321;50.816;6.054;2024-01-25T17:00:35;0.83;;;0.83;;
41627;SDS011;27321;50.816;6.054;2024-01-25T17:03:36;1.35;;;1.00;;
41627;SDS011;27321;50.816;6.054;2024-01-25T17:06:38;1.98;;;1.20;;
41627;SDS011;27321;50.816;6.054;2024-01-25T17:09:44;2.27;;;1.10;;
41627;SDS011;27321;50.816;6.054;2024-01-25T17:12:45;1.77;;;0.70;;
41627;SDS011;27321;50.816;6.054;2024-01-25T17:15:46;2.83;;;1.08;;
41627;SDS011;27321;50.816;6.054;2024-01-25T17:18:47;1.03;;;0.83;;
41627;SDS011;27321;50.816;6.054;2024-01-25T17:21:48;0.70;;;0.70;;
41627;SDS011;27321;50.816;6.054;2024-01-25T17:24:50;1.13;;;1.02;;
41627;SDS011;27321;50.816;6.054;2024-01-25T17:27:51;1.67;;;0.85;;
41627;SDS011;27321;50.816;6.054;2024-01-25T17:30:52;1.40;;;0.93;;
41627;SDS011;27321;50.816;6.054;2024-01-25T17:33:53;1.60;;;1.00;;
41627;SDS011;27321;50.816;6.054;2024-01-25T17:36:54;2.33;;;1.02;;
41627;SDS011;27321;50.816;6.054;2024-01-25T17:39:55;1.88;;;1.15;;
41627;SDS011;27321;50.816;6.054;2024-01-25T17:42:56;0.98;;;0.98;;
41627;SDS011;27321;50.816;6.054;2024-01-25T17:45:57;1.15;;;1.05;;
41627;SDS011;27321;50.816;6.054;2024-01-25T17:48:58;1.93;;;1.10;;
41627;SDS011;27321;50.816;6.054;2024-01-25T17:51:59;1.17;;;1.08;;
41627;SDS011;27321;50.816;6.054;2024-01-25T17:55:05;1.20;;;1.10;;
41627;SDS011;27321;50.816;6.054;2024-01-25T17:58:07;2.37;;;1.40;;
41627;SDS011;27321;50.816;6.054;2024-01-25T18:01:08;1.42;;;1.33;;
41627;SDS011;27321;50.816;6.054;2024-01-25T18:04:09;1.65;;;1.55;;
41627;SDS011;27321;50.816;6.054;2024-01-25T18:07:11;1.38;;;1.27;;
41627;SDS011;27321;50.816;6.054;2024-01-25T18:10:12;1.20;;;1.10;;
41627;SDS011;27321;50.816;6.054;2024-01-25T18:13:13;1.20;;;1.10;;